createdAt,value
2019-02-16T00:00:31.944Z,65.02
2019-02-16T00:01:31.919Z,65.23
2019-02-16T00:02:31.935Z,65.12
2019-02-16T00:03:31.944Z,65.23
2019-02-16T00:04:31.886Z,65.02
2019-02-16T00:05:31.891Z,65.12
2019-02-16T00:06:31.867Z,65.02
2019-02-16T00:07:31.857Z,64.81
2019-02-16T00:08:31.854Z,64.92
2019-02-16T00:09:31.871Z,64.81
2019-02-16T00:10:31.871Z,64.61
2019-02-16T00:11:31.824Z,64.92
2019-02-16T00:12:31.804Z,64.81
2019-02-16T00:13:31.796Z,65.02
2019-02-16T00:14:31.786Z,64.99
2019-02-16T00:15:31.812Z,65.02
2019-02-16T00:16:31.772Z,65.12
2019-02-16T00:17:31.765Z,65.09
2019-02-16T00:18:31.747Z,65.02
2019-02-16T00:19:31.735Z,65.02
2019-02-16T00:20:31.746Z,65.12
2019-02-16T00:21:31.719Z,64.71
2019-02-16T00:22:31.709Z,64.71
2019-02-16T00:23:31.697Z,65.44
2019-02-16T00:24:31.678Z,64.81
2019-02-16T00:25:31.697Z,64.92
2019-02-16T00:26:31.659Z,64.92
2019-02-16T00:27:31.661Z,65.75
2019-02-16T00:28:31.646Z,65.64
2019-02-16T00:29:31.636Z,65.75
2019-02-16T00:30:31.648Z,65.78
2019-02-16T00:31:31.616Z,65.85
2019-02-16T00:32:31.615Z,65.95
2019-02-16T00:33:31.594Z,65.75
2019-02-16T00:34:31.584Z,66.09
2019-02-16T00:35:31.592Z,65.95
2019-02-16T00:36:31.559Z,65.78
2019-02-16T00:37:31.548Z,66.06
2019-02-16T00:38:31.543Z,66.06
2019-02-16T00:39:31.525Z,65.85
2019-02-16T00:40:31.548Z,66.16
2019-02-16T00:41:31.512Z,66.16
2019-02-16T00:42:31.503Z,66.47
2019-02-16T00:43:31.493Z,66.36
2019-02-16T00:44:31.484Z,66.26
2019-02-16T00:45:31.485Z,66.47
2019-02-16T00:46:31.454Z,66.26
2019-02-16T00:47:31.451Z,66.26
2019-02-16T00:48:31.440Z,66.16
2019-02-16T00:49:31.429Z,66.26
2019-02-16T00:50:31.431Z,66.57
2019-02-16T00:51:31.404Z,66.26
2019-02-16T00:52:31.400Z,66.71
2019-02-16T00:53:31.391Z,66.47
2019-02-16T00:54:31.384Z,66.78
2019-02-16T00:55:31.402Z,66.47
2019-02-16T00:56:31.359Z,66.16
2019-02-16T00:57:31.380Z,66.26
2019-02-16T00:58:31.331Z,66.47
2019-02-16T00:59:31.318Z,65.95
2019-02-16T01:00:31.336Z,65.95
2019-02-16T01:01:31.305Z,65.85
2019-02-16T01:02:31.299Z,64.92
2019-02-16T01:03:31.303Z,64.92
2019-02-16T01:04:31.326Z,64.81
2019-02-16T01:05:31.296Z,64.61
2019-02-16T01:06:31.255Z,65.75
2019-02-16T01:07:31.250Z,65.95
2019-02-16T01:08:31.226Z,66.19
2019-02-16T01:09:31.216Z,66.19
2019-02-16T01:10:31.208Z,66.29
2019-02-16T01:11:31.232Z,66.39
2019-02-16T01:12:31.190Z,67.15
2019-02-16T01:13:31.182Z,67.36
2019-02-16T01:14:31.169Z,67.25
2019-02-16T01:15:31.159Z,67.15
2019-02-16T01:16:31.146Z,67.15
2019-02-16T01:17:31.159Z,66.94
2019-02-16T01:18:31.124Z,66.94
2019-02-16T01:19:31.118Z,67.39
2019-02-16T01:20:31.108Z,67.70
2019-02-16T01:21:31.099Z,67.39
2019-02-16T01:22:31.107Z,67.49
2019-02-16T01:23:31.077Z,68.22
2019-02-16T01:24:31.067Z,67.52
2019-02-16T01:25:31.060Z,68.22
2019-02-16T01:26:31.046Z,68.25
2019-02-16T01:27:31.037Z,67.83
2019-02-16T01:28:31.034Z,68.25
2019-02-16T01:29:31.007Z,67.63
2019-02-16T01:30:31.005Z,68.77
2019-02-16T01:31:31.000Z,68.15
2019-02-16T01:32:30.993Z,68.18
2019-02-16T01:33:31.000Z,68.49
2019-02-16T01:34:30.975Z,68.59
2019-02-16T01:35:30.964Z,68.49
2019-02-16T01:36:30.952Z,68.87
2019-02-16T01:37:30.946Z,68.38
2019-02-16T01:38:30.952Z,69.11
2019-02-16T01:39:30.923Z,69.32
2019-02-16T01:40:30.909Z,69.35
2019-02-16T01:41:30.895Z,68.93
2019-02-16T01:42:30.884Z,69.11
2019-02-16T01:43:30.892Z,69.21
2019-02-16T01:44:30.870Z,69.24
2019-02-16T01:45:30.860Z,69.01
2019-02-16T01:46:30.854Z,69.24
2019-02-16T01:47:30.828Z,69.76
2019-02-16T01:48:30.836Z,69.76
2019-02-16T01:49:30.802Z,69.32
2019-02-16T01:50:30.792Z,69.53
2019-02-16T01:51:32.189Z,69.45
2019-02-16T01:52:30.794Z,69.76
2019-02-16T01:53:30.804Z,69.04
2019-02-16T01:54:30.760Z,69.66
2019-02-16T01:55:30.752Z,69.87
2019-02-16T01:56:30.746Z,69.66
2019-02-16T01:57:30.753Z,69.87
2019-02-16T01:58:30.730Z,69.79
2019-02-16T01:59:30.713Z,69.87
2019-02-16T02:00:30.714Z,70.00
2019-02-16T02:01:30.683Z,69.87
2019-02-16T02:02:30.673Z,70.07
2019-02-16T02:03:30.696Z,70.07
2019-02-16T02:04:30.660Z,69.87
2019-02-16T02:05:30.650Z,70.10
2019-02-16T02:06:30.644Z,70.10
2019-02-16T02:07:30.630Z,70.39
2019-02-16T02:08:30.633Z,70.18
2019-02-16T02:09:30.628Z,70.21
2019-02-16T02:10:30.598Z,70.42
2019-02-16T02:11:30.591Z,70.73
2019-02-16T02:12:30.592Z,70.62
2019-02-16T02:13:30.564Z,71.14
2019-02-16T02:14:30.555Z,70.94
2019-02-16T02:15:30.557Z,71.08
2019-02-16T02:16:30.560Z,71.08
2019-02-16T02:17:30.525Z,71.49
2019-02-16T02:18:30.516Z,71.39
2019-02-16T02:19:30.507Z,71.49
2019-02-16T02:20:30.520Z,71.49
2019-02-16T02:21:30.482Z,71.39
2019-02-16T02:22:30.467Z,71.18
2019-02-16T02:23:30.460Z,71.52
2019-02-16T02:24:30.454Z,71.94
2019-02-16T02:25:30.451Z,71.83
2019-02-16T02:26:30.451Z,71.94
2019-02-16T02:27:30.421Z,71.94
2019-02-16T02:28:30.412Z,71.83
2019-02-16T02:29:30.404Z,72.04
2019-02-16T02:30:30.392Z,71.94
2019-02-16T02:31:30.403Z,71.94
2019-02-16T02:32:30.362Z,72.25
2019-02-16T02:33:30.371Z,72.28
2019-02-16T02:34:30.360Z,72.28
2019-02-16T02:35:30.333Z,72.28
2019-02-16T02:36:30.354Z,72.80
2019-02-16T02:37:30.317Z,72.38
2019-02-16T02:38:30.315Z,72.94
2019-02-16T02:39:30.299Z,72.73
2019-02-16T02:40:30.281Z,72.73
2019-02-16T02:41:30.292Z,73.14
2019-02-16T02:42:30.263Z,73.04
2019-02-16T02:43:30.253Z,73.25
2019-02-16T02:44:30.241Z,73.04
2019-02-16T02:45:30.249Z,73.14
2019-02-16T02:46:30.246Z,73.77
2019-02-16T02:47:30.205Z,73.46
2019-02-16T02:48:30.206Z,73.87
2019-02-16T02:49:30.191Z,73.77
2019-02-16T02:50:30.181Z,73.77
2019-02-16T02:51:30.185Z,73.46
2019-02-16T02:52:30.164Z,73.87
2019-02-16T02:53:31.595Z,73.77
2019-02-16T02:54:30.137Z,73.77
2019-02-16T02:55:30.128Z,73.70
2019-02-16T02:56:30.129Z,73.70
2019-02-16T02:57:30.102Z,74.32
2019-02-16T02:58:30.097Z,74.01
2019-02-16T02:59:30.087Z,74.32
2019-02-16T03:00:30.069Z,74.11
2019-02-16T03:01:30.077Z,74.53
2019-02-16T03:02:30.053Z,74.43
2019-02-16T03:03:30.048Z,74.74
2019-02-16T03:04:30.037Z,74.84
2019-02-16T03:05:30.023Z,74.57
2019-02-16T03:06:30.038Z,74.46
2019-02-16T03:07:30.002Z,74.53
2019-02-16T03:08:29.985Z,74.63
2019-02-16T03:09:29.980Z,73.80
2019-02-16T03:10:29.965Z,74.43
2019-02-16T03:11:29.993Z,74.32
2019-02-16T03:12:29.951Z,74.25
2019-02-16T03:13:29.940Z,74.88
2019-02-16T03:14:29.926Z,74.57
2019-02-16T03:15:29.911Z,74.35
2019-02-16T03:16:29.908Z,74.63
2019-02-16T03:17:29.922Z,74.32
2019-02-16T03:18:29.892Z,74.25
2019-02-16T03:19:29.879Z,74.25
2019-02-16T03:20:29.861Z,74.43
2019-02-16T03:21:29.873Z,74.22
2019-02-16T03:22:29.840Z,74.88
2019-02-16T03:23:29.831Z,74.63
2019-02-16T03:24:29.833Z,75.09
2019-02-16T03:25:29.818Z,74.98
2019-02-16T03:26:29.826Z,75.40
2019-02-16T03:27:29.797Z,74.98
2019-02-16T03:28:29.799Z,75.50
2019-02-16T03:29:29.766Z,75.50
2019-02-16T03:30:29.775Z,75.50
2019-02-16T03:31:29.773Z,75.29
2019-02-16T03:32:29.743Z,75.50
2019-02-16T03:33:29.728Z,75.29
2019-02-16T03:34:29.738Z,75.29
2019-02-16T03:35:29.707Z,75.40
2019-02-16T03:36:29.701Z,75.29
2019-02-16T03:37:29.707Z,75.29
2019-02-16T03:38:29.682Z,75.50
2019-02-16T03:39:29.668Z,75.50
2019-02-16T03:40:29.651Z,75.50
2019-02-16T03:41:29.677Z,75.95
2019-02-16T03:42:29.631Z,75.85
2019-02-16T03:43:29.629Z,75.85
2019-02-16T03:44:29.627Z,75.85
2019-02-16T03:45:29.606Z,75.95
2019-02-16T03:46:29.590Z,75.74
2019-02-16T03:47:29.598Z,76.12
2019-02-16T03:48:29.575Z,75.95
2019-02-16T03:49:29.575Z,76.16
2019-02-16T03:50:29.573Z,75.74
2019-02-16T03:51:29.545Z,76.37
2019-02-16T03:52:29.549Z,76.16
2019-02-16T03:53:29.524Z,76.16
2019-02-16T03:54:29.505Z,75.74
2019-02-16T03:55:29.538Z,76.16
2019-02-16T03:56:29.496Z,76.26
2019-02-16T03:57:29.502Z,76.26
2019-02-16T03:58:29.472Z,76.26
2019-02-16T03:59:29.461Z,76.16
2019-02-16T04:00:29.447Z,76.26
2019-02-16T04:01:29.446Z,76.16
2019-02-16T04:02:29.460Z,75.95
2019-02-16T04:03:29.420Z,76.26
2019-02-16T04:04:29.402Z,76.06
2019-02-16T04:05:29.393Z,76.26
2019-02-16T04:06:29.388Z,76.33
2019-02-16T04:07:29.394Z,75.74
2019-02-16T04:08:29.384Z,75.71
2019-02-16T04:09:29.355Z,75.60
2019-02-16T04:10:29.352Z,75.92
2019-02-16T04:11:29.335Z,75.85
2019-02-16T04:12:29.336Z,75.85
2019-02-16T04:13:29.314Z,75.85
2019-02-16T04:14:29.300Z,75.43
2019-02-16T04:15:29.289Z,75.60
2019-02-16T04:16:29.286Z,75.29
2019-02-16T04:17:29.296Z,75.43
2019-02-16T04:18:29.253Z,75.64
2019-02-16T04:19:29.247Z,76.23
2019-02-16T04:20:29.242Z,76.02
2019-02-16T04:21:29.223Z,75.95
2019-02-16T04:22:29.239Z,76.06
2019-02-16T04:23:29.204Z,76.02
2019-02-16T04:24:29.206Z,76.06
2019-02-16T04:25:29.183Z,75.95
2019-02-16T04:26:29.170Z,75.81
2019-02-16T04:27:29.186Z,75.71
2019-02-16T04:28:29.157Z,76.06
2019-02-16T04:29:29.142Z,75.60
2019-02-16T04:30:29.148Z,75.50
2019-02-16T04:31:29.122Z,74.98
2019-02-16T04:32:29.099Z,74.77
2019-02-16T04:33:29.089Z,74.25
2019-02-16T04:34:29.089Z,74.15
2019-02-16T04:35:29.097Z,75.01
2019-02-16T04:36:29.061Z,75.40
2019-02-16T04:37:29.051Z,75.95
2019-02-16T04:38:29.041Z,75.95
2019-02-16T04:39:29.038Z,75.74
2019-02-16T04:40:29.044Z,75.64
2019-02-16T04:41:29.017Z,75.74
2019-02-16T04:42:29.012Z,76.06
2019-02-16T04:43:28.993Z,76.06
2019-02-16T04:44:28.977Z,75.60
2019-02-16T04:45:28.985Z,74.98
2019-02-16T04:46:28.955Z,74.67
2019-02-16T04:47:28.965Z,75.22
2019-02-16T04:48:28.945Z,75.19
2019-02-16T04:49:28.932Z,75.19
2019-02-16T04:50:28.998Z,75.54
2019-02-16T04:51:28.903Z,75.19
2019-02-16T04:52:34.906Z,75.60
2019-02-16T04:53:29.888Z,75.19
2019-02-16T04:54:28.880Z,75.09
2019-02-16T04:55:28.886Z,74.46
2019-02-16T04:56:28.859Z,74.46
2019-02-16T04:57:28.841Z,74.67
2019-02-16T04:58:28.830Z,74.25
2019-02-16T04:59:28.848Z,73.73
2019-02-16T05:00:28.835Z,74.15
2019-02-16T05:01:28.810Z,74.25
2019-02-16T05:02:28.795Z,74.35
2019-02-16T05:03:28.790Z,74.35
2019-02-16T05:04:28.776Z,74.25
2019-02-16T05:05:28.787Z,74.35
2019-02-16T05:06:28.755Z,74.91
2019-02-16T05:07:28.747Z,74.57
2019-02-16T05:08:28.729Z,74.29
2019-02-16T05:09:28.718Z,74.70
2019-02-16T05:10:28.710Z,75.22
2019-02-16T05:11:28.728Z,74.39
2019-02-16T05:12:28.693Z,74.29
2019-02-16T05:13:28.681Z,74.39
2019-02-16T05:14:28.672Z,75.12
2019-02-16T05:15:28.666Z,75.43
2019-02-16T05:16:28.647Z,75.57
2019-02-16T05:17:28.661Z,75.15
2019-02-16T05:18:28.625Z,75.36
2019-02-16T05:19:28.615Z,75.43
2019-02-16T05:20:28.607Z,75.54
2019-02-16T05:21:28.600Z,75.36
2019-02-16T05:22:28.582Z,75.67
2019-02-16T05:23:28.589Z,75.54
2019-02-16T05:24:28.568Z,75.54
2019-02-16T05:25:28.558Z,74.91
2019-02-16T05:26:28.556Z,75.15
2019-02-16T05:27:28.540Z,75.26
2019-02-16T05:28:28.542Z,75.88
2019-02-16T05:29:28.515Z,76.20
2019-02-16T05:30:28.499Z,76.09
2019-02-16T05:31:28.489Z,76.09
2019-02-16T05:32:28.484Z,75.98
2019-02-16T05:33:28.495Z,76.09
2019-02-16T05:34:28.464Z,75.67
2019-02-16T05:35:28.453Z,75.67
2019-02-16T05:36:28.435Z,75.64
2019-02-16T05:37:30.440Z,75.64
2019-02-16T05:38:28.458Z,75.43
2019-02-16T05:39:28.413Z,75.22
2019-02-16T05:40:28.403Z,75.54
2019-02-16T05:41:28.387Z,75.36
2019-02-16T05:42:28.374Z,75.26
2019-02-16T05:43:28.365Z,75.67
2019-02-16T05:44:28.386Z,75.26
2019-02-16T05:45:28.353Z,75.57
2019-02-16T05:46:28.343Z,75.05
2019-02-16T05:47:28.329Z,74.95
2019-02-16T05:48:28.313Z,75.22
2019-02-16T05:49:28.329Z,74.49
2019-02-16T05:50:28.292Z,74.49
2019-02-16T05:51:28.280Z,74.63
2019-02-16T05:52:28.289Z,75.15
2019-02-16T05:53:28.266Z,74.63
2019-02-16T05:54:28.249Z,74.53
2019-02-16T05:55:28.260Z,74.95
2019-02-16T05:56:28.236Z,75.12
2019-02-16T05:57:28.225Z,74.32
2019-02-16T05:58:28.222Z,74.39
2019-02-16T05:59:28.206Z,74.63
2019-02-16T06:00:28.222Z,74.70
2019-02-16T06:01:28.175Z,74.63
2019-02-16T06:02:28.168Z,74.63
2019-02-16T06:03:28.159Z,74.21
2019-02-16T06:04:28.153Z,73.90
2019-02-16T06:05:28.142Z,74.60
2019-02-16T06:06:28.169Z,74.18
2019-02-16T06:07:28.120Z,74.32
2019-02-16T06:08:28.117Z,74.63
2019-02-16T06:09:28.092Z,74.74
2019-02-16T06:10:28.088Z,74.53
2019-02-16T06:11:28.079Z,74.32
2019-02-16T06:12:28.080Z,74.43
2019-02-16T06:13:28.061Z,74.21
2019-02-16T06:14:28.041Z,74.32
2019-02-16T06:15:28.033Z,74.32
2019-02-16T06:16:28.044Z,75.26
2019-02-16T06:17:28.040Z,74.63
2019-02-16T06:18:28.007Z,74.63
2019-02-16T06:19:28.000Z,74.63
2019-02-16T06:20:27.997Z,74.70
2019-02-16T06:21:27.968Z,74.18
2019-02-16T06:22:27.981Z,74.11
2019-02-16T06:23:27.982Z,73.87
2019-02-16T06:24:27.952Z,74.18
2019-02-16T06:25:27.936Z,74.49
2019-02-16T06:26:27.917Z,74.35
2019-02-16T06:27:27.923Z,74.39
2019-02-16T06:28:27.922Z,74.39
2019-02-16T06:29:27.897Z,74.04
2019-02-16T06:30:27.884Z,74.60
2019-02-16T06:31:27.908Z,74.18
2019-02-16T06:32:27.854Z,74.39
2019-02-16T06:33:27.887Z,74.29
2019-02-16T06:34:27.843Z,74.18
2019-02-16T06:35:27.829Z,73.77
2019-02-16T06:36:27.818Z,74.49
2019-02-16T06:37:27.818Z,74.29
2019-02-16T06:38:27.805Z,74.29
2019-02-16T06:39:27.818Z,74.60
2019-02-16T06:40:27.772Z,73.87
2019-02-16T06:41:27.764Z,74.49
2019-02-16T06:42:27.761Z,74.04
2019-02-16T06:43:27.768Z,73.52
2019-02-16T06:44:27.733Z,73.11
2019-02-16T06:45:27.721Z,73.66
2019-02-16T06:46:27.712Z,73.32
2019-02-16T06:47:27.736Z,72.90
2019-02-16T06:48:27.695Z,73.11
2019-02-16T06:49:27.702Z,73.32
2019-02-16T06:50:36.537Z,73.11
2019-02-16T06:51:28.662Z,73.32
2019-02-16T06:52:27.649Z,72.80
2019-02-16T06:53:27.636Z,72.55
2019-02-16T06:54:27.667Z,71.45
2019-02-16T06:55:27.638Z,68.21
2019-02-16T06:56:27.616Z,64.87
2019-02-16T06:57:27.603Z,61.79
2019-02-16T06:58:27.593Z,59.36
2019-02-16T06:59:27.575Z,57.42
2019-02-16T07:00:27.590Z,55.93
2019-02-16T07:01:27.563Z,54.53
2019-02-16T07:02:27.551Z,52.84
2019-02-16T07:03:27.540Z,51.99
2019-02-16T07:04:27.537Z,51.66
2019-02-16T07:05:27.527Z,50.84
2019-02-16T07:06:27.500Z,51.04
2019-02-16T07:07:27.489Z,50.71
2019-02-16T07:08:27.486Z,50.18
2019-02-16T07:09:27.476Z,49.33
2019-02-16T07:10:27.483Z,48.67
2019-02-16T07:11:27.455Z,47.30
2019-02-16T07:12:27.437Z,45.72
2019-02-16T07:13:27.428Z,45.72
2019-02-16T07:14:27.426Z,45.51
2019-02-16T07:15:27.454Z,43.96
2019-02-16T07:16:27.396Z,44.14
2019-02-16T07:17:27.389Z,43.84
2019-02-16T07:18:27.380Z,43.91
2019-02-16T07:19:27.365Z,43.94
2019-02-16T07:20:27.362Z,43.82
2019-02-16T07:21:27.420Z,42.90
2019-02-16T07:22:27.337Z,44.35
2019-02-16T07:23:27.335Z,43.30
2019-02-16T07:24:27.313Z,42.77
2019-02-16T07:25:27.304Z,43.30
2019-02-16T07:26:27.290Z,42.69
2019-02-16T07:27:27.307Z,43.08
2019-02-16T07:28:27.277Z,42.08
2019-02-16T07:29:27.274Z,41.96
2019-02-16T07:30:27.247Z,42.26
2019-02-16T07:31:27.266Z,42.14
2019-02-16T07:32:27.259Z,42.02
2019-02-16T07:33:27.223Z,42.14
2019-02-16T07:34:27.212Z,41.63
2019-02-16T07:35:27.200Z,42.35
2019-02-16T07:36:27.219Z,42.47
2019-02-16T07:37:27.189Z,42.57
2019-02-16T07:38:27.166Z,42.08
2019-02-16T07:39:27.153Z,42.36
2019-02-16T07:40:27.152Z,42.29
2019-02-16T07:41:27.138Z,42.18
2019-02-16T07:42:27.166Z,43.12
2019-02-16T07:43:27.115Z,43.44
2019-02-16T07:44:27.097Z,43.77
2019-02-16T07:45:27.090Z,44.61
2019-02-16T07:46:27.128Z,45.70
2019-02-16T07:47:27.127Z,46.13
2019-02-16T07:48:27.060Z,47.61
2019-02-16T07:49:27.076Z,48.66
2019-02-16T07:50:27.037Z,48.58
2019-02-16T07:51:27.022Z,49.94
2019-02-16T07:52:27.484Z,50.50
2019-02-16T07:53:31.346Z,52.27
2019-02-16T07:54:27.521Z,52.83
2019-02-16T07:55:26.988Z,53.27
2019-02-16T07:56:26.968Z,54.12
2019-02-16T07:57:26.977Z,55.26
2019-02-16T07:58:26.980Z,55.18
2019-02-16T07:59:26.937Z,55.07
2019-02-16T08:00:26.933Z,55.62
2019-02-16T08:01:26.919Z,55.41
2019-02-16T08:02:26.907Z,56.26
2019-02-16T08:03:26.892Z,56.54
2019-02-16T08:04:26.914Z,56.54
2019-02-16T08:05:26.894Z,56.65
2019-02-16T08:06:26.866Z,56.44
2019-02-16T08:07:26.908Z,55.69
2019-02-16T08:08:26.839Z,55.05
2019-02-16T08:09:26.846Z,54.28
2019-02-16T08:10:26.817Z,52.25
2019-02-16T08:11:26.808Z,49.58
2019-02-16T08:12:26.804Z,47.52
2019-02-16T08:13:26.794Z,44.35
2019-02-16T08:14:26.805Z,42.08
2019-02-16T08:15:26.804Z,39.36
2019-02-16T08:16:26.753Z,38.39
2019-02-16T08:17:26.742Z,37.04
2019-02-16T08:18:26.739Z,38.18
2019-02-16T08:19:26.730Z,38.07
2019-02-16T08:20:26.721Z,36.82
2019-02-16T08:21:26.725Z,36.19
2019-02-16T08:22:26.690Z,35.66
2019-02-16T08:23:26.680Z,34.92
2019-02-16T08:24:26.674Z,33.61
2019-02-16T08:25:26.663Z,34.00
2019-02-16T08:26:26.684Z,33.54
2019-02-16T08:27:26.643Z,32.42
2019-02-16T08:28:26.669Z,33.66
2019-02-16T08:29:26.617Z,32.85
2019-02-16T08:30:26.605Z,33.80
2019-02-16T08:31:26.792Z,33.67
2019-02-16T08:32:26.627Z,33.27
2019-02-16T08:33:26.578Z,33.64
2019-02-16T08:34:26.562Z,32.60
2019-02-16T08:35:26.550Z,32.47
2019-02-16T08:36:26.545Z,30.51
2019-02-16T08:37:26.561Z,30.11
2019-02-16T08:38:26.532Z,30.83
2019-02-16T08:39:26.513Z,29.82
2019-02-16T08:40:26.494Z,30.02
2019-02-16T08:41:26.487Z,30.35
2019-02-16T08:42:26.473Z,30.84
2019-02-16T08:43:26.490Z,30.94
2019-02-16T08:44:26.466Z,29.72
2019-02-16T08:45:26.449Z,30.32
2019-02-16T08:46:26.445Z,30.84
2019-02-16T08:47:26.463Z,29.63
2019-02-16T08:48:26.413Z,30.86
2019-02-16T08:49:26.398Z,30.52
2019-02-16T08:50:26.399Z,30.10
2019-02-16T08:51:26.384Z,30.19
2019-02-16T08:52:26.368Z,30.31
2019-02-16T08:53:26.375Z,30.62
2019-02-16T08:54:26.357Z,30.21
2019-02-16T08:55:26.341Z,30.51
2019-02-16T08:56:26.338Z,30.12
2019-02-16T08:57:26.319Z,30.43
2019-02-16T08:58:26.327Z,30.11
2019-02-16T08:59:26.319Z,29.81
2019-02-16T09:00:26.305Z,29.36
2019-02-16T09:01:27.541Z,29.59
2019-02-16T09:02:26.270Z,29.61
2019-02-16T09:03:26.270Z,30.18
2019-02-16T09:04:26.269Z,29.07
2019-02-16T09:05:26.236Z,29.39
2019-02-16T09:06:26.217Z,30.28
2019-02-16T09:07:26.204Z,29.17
2019-02-16T09:08:26.201Z,29.38
2019-02-16T09:09:26.208Z,28.47
2019-02-16T09:10:26.186Z,30.22
2019-02-16T09:11:26.174Z,30.41
2019-02-16T09:12:26.184Z,29.69
2019-02-16T09:13:26.143Z,29.47
2019-02-16T09:14:26.205Z,28.97
2019-02-16T09:15:26.124Z,29.68
2019-02-16T09:16:26.114Z,29.59
2019-02-16T09:17:26.104Z,29.27
2019-02-16T09:18:26.095Z,28.96
2019-02-16T09:19:26.084Z,29.35
2019-02-16T09:20:26.116Z,28.23
2019-02-16T09:21:26.060Z,28.63
2019-02-16T09:22:26.051Z,29.12
2019-02-16T09:23:26.109Z,28.63
2019-02-16T09:24:26.047Z,28.80
2019-02-16T09:25:26.030Z,30.44
2019-02-16T09:26:26.038Z,29.79
2019-02-16T09:27:25.994Z,28.99
2019-02-16T09:28:25.996Z,29.58
2019-02-16T09:29:25.977Z,29.46
2019-02-16T09:30:25.986Z,28.24
2019-02-16T09:31:25.959Z,28.73
2019-02-16T09:32:25.946Z,27.93
2019-02-16T09:33:25.928Z,28.64
2019-02-16T09:34:25.918Z,28.95
2019-02-16T09:35:25.924Z,28.73
2019-02-16T09:36:25.904Z,27.72
2019-02-16T09:37:25.894Z,28.11
2019-02-16T09:38:25.880Z,28.41
2019-02-16T09:39:25.869Z,28.73
2019-02-16T09:40:25.878Z,27.91
2019-02-16T09:41:25.849Z,27.17
2019-02-16T09:42:25.840Z,26.56
2019-02-16T09:43:25.833Z,26.96
2019-02-16T09:44:25.811Z,26.14
2019-02-16T09:45:25.824Z,25.53
2019-02-16T09:46:25.791Z,25.62
2019-02-16T09:47:25.779Z,25.82
2019-02-16T09:48:25.776Z,25.49
2019-02-16T09:49:25.768Z,25.09
2019-02-16T09:50:25.775Z,25.47
2019-02-16T09:51:25.752Z,24.45
2019-02-16T09:52:25.729Z,24.44
2019-02-16T09:53:25.723Z,24.05
2019-02-16T09:54:25.718Z,24.01
2019-02-16T09:55:25.723Z,24.93
2019-02-16T09:56:25.686Z,25.95
2019-02-16T09:57:25.678Z,26.16
2019-02-16T09:58:25.666Z,26.46
2019-02-16T09:59:25.667Z,25.42
2019-02-16T10:00:25.671Z,26.20
2019-02-16T10:01:25.641Z,24.48
2019-02-16T10:02:25.631Z,24.11
2019-02-16T10:03:25.620Z,25.96
2019-02-16T10:04:25.599Z,26.06
2019-02-16T10:05:25.613Z,26.25
2019-02-16T10:06:25.605Z,25.54
2019-02-16T10:07:25.871Z,25.42
2019-02-16T10:08:25.591Z,24.32
2019-02-16T10:09:25.561Z,25.23
2019-02-16T10:10:25.540Z,24.73
2019-02-16T10:11:25.528Z,25.76
2019-02-16T10:12:25.537Z,25.81
2019-02-16T10:13:25.530Z,27.02
2019-02-16T10:14:25.540Z,26.01
2019-02-16T10:15:25.491Z,25.70
2019-02-16T10:16:25.492Z,25.90
2019-02-16T10:17:26.147Z,26.64
2019-02-16T10:18:25.480Z,25.60
2019-02-16T10:19:25.445Z,26.03
2019-02-16T10:20:25.441Z,26.86
2019-02-16T10:21:25.428Z,26.56
2019-02-16T10:22:25.418Z,27.17
2019-02-16T10:23:25.408Z,27.14
2019-02-16T10:24:25.407Z,26.29
2019-02-16T10:25:25.382Z,24.85
2019-02-16T10:26:25.374Z,24.58
2019-02-16T10:27:25.381Z,24.79
2019-02-16T10:28:25.348Z,25.58
2019-02-16T10:29:26.537Z,24.96
2019-02-16T10:30:25.329Z,24.74
2019-02-16T10:31:25.323Z,24.21
2019-02-16T10:32:25.314Z,23.57
2019-02-16T10:33:25.302Z,22.49
2019-02-16T10:34:25.317Z,23.82
2019-02-16T10:35:25.318Z,23.32
2019-02-16T10:36:25.269Z,23.93
2019-02-16T10:37:25.284Z,24.24
2019-02-16T10:38:25.249Z,24.24
2019-02-16T10:39:25.239Z,24.23
2019-02-16T10:40:25.234Z,24.11
2019-02-16T10:41:25.238Z,23.80
2019-02-16T10:42:25.209Z,22.62
2019-02-16T10:43:25.230Z,23.75
2019-02-16T10:44:25.203Z,24.24
2019-02-16T10:45:25.180Z,23.83
2019-02-16T10:46:25.186Z,24.03
2019-02-16T10:47:25.195Z,24.01
2019-02-16T10:48:25.146Z,22.88
2019-02-16T10:49:25.147Z,22.80
2019-02-16T10:50:25.118Z,22.60
2019-02-16T10:51:25.107Z,22.78
2019-02-16T10:52:25.111Z,22.50
2019-02-16T10:53:25.117Z,24.02
2019-02-16T10:54:27.989Z,23.93
2019-02-16T10:55:25.073Z,23.92
2019-02-16T10:56:25.074Z,24.14
2019-02-16T10:57:25.046Z,23.94
2019-02-16T10:58:25.066Z,24.26
2019-02-16T10:59:25.034Z,24.04
2019-02-16T11:00:25.023Z,24.34
2019-02-16T11:01:25.002Z,24.14
2019-02-16T11:02:24.991Z,24.66
2019-02-16T11:03:25.650Z,24.77
2019-02-16T11:04:24.974Z,24.58
2019-02-16T11:05:24.966Z,25.48
2019-02-16T11:06:24.971Z,24.68
2019-02-16T11:07:24.945Z,24.46
2019-02-16T11:08:24.929Z,24.24
2019-02-16T11:09:25.009Z,23.84
2019-02-16T11:10:24.972Z,23.23
2019-02-16T11:11:24.908Z,24.01
2019-02-16T11:12:24.900Z,23.91
2019-02-16T11:13:24.887Z,24.12
2019-02-16T11:14:24.893Z,24.22
2019-02-16T11:15:24.861Z,24.40
2019-02-16T11:16:24.851Z,23.68
2019-02-16T11:17:24.842Z,23.16
2019-02-16T11:18:24.829Z,23.07
2019-02-16T11:19:24.820Z,22.16
2019-02-16T11:20:24.826Z,23.08
2019-02-16T11:21:24.790Z,22.77
2019-02-16T11:22:24.794Z,23.05
2019-02-16T11:23:24.785Z,22.73
2019-02-16T11:24:24.769Z,22.53
2019-02-16T11:25:24.769Z,22.34
2019-02-16T11:26:24.741Z,22.44
2019-02-16T11:27:24.730Z,22.34
2019-02-16T11:28:24.726Z,22.64
2019-02-16T11:29:24.732Z,22.42
2019-02-16T11:30:24.730Z,21.89
2019-02-16T11:31:24.688Z,21.30
2019-02-16T11:32:24.703Z,22.12
2019-02-16T11:33:24.676Z,21.84
2019-02-16T11:34:24.666Z,22.65
2019-02-16T11:35:24.672Z,22.27
2019-02-16T11:36:24.639Z,22.55
2019-02-16T11:37:24.628Z,21.75
2019-02-16T11:38:24.621Z,22.55
2019-02-16T11:39:24.608Z,22.63
2019-02-16T11:40:24.623Z,22.53
2019-02-16T11:41:24.593Z,22.01
2019-02-16T11:42:24.618Z,21.49
2019-02-16T11:43:24.572Z,21.80
2019-02-16T11:44:24.554Z,21.50
2019-02-16T11:45:24.549Z,22.01
2019-02-16T11:46:24.547Z,21.91
2019-02-16T11:47:24.537Z,22.43
2019-02-16T11:48:24.535Z,22.42
2019-02-16T11:49:24.505Z,22.23
2019-02-16T11:50:24.497Z,22.11
2019-02-16T11:51:24.488Z,21.92
2019-02-16T11:52:24.485Z,22.93
2019-02-16T11:53:24.534Z,22.13
2019-02-16T11:54:24.461Z,22.83
2019-02-16T11:55:24.454Z,21.84
2019-02-16T11:56:24.457Z,22.76
2019-02-16T11:57:24.422Z,22.45
2019-02-16T11:58:24.419Z,22.55
2019-02-16T11:59:24.412Z,22.44
2019-02-16T12:00:24.404Z,22.44
2019-02-16T12:01:24.410Z,21.95
2019-02-16T12:02:24.374Z,22.44
2019-02-16T12:03:24.364Z,22.57
2019-02-16T12:04:24.369Z,24.17
2019-02-16T12:05:24.370Z,23.86
2019-02-16T12:06:24.369Z,22.83
2019-02-16T12:07:24.923Z,21.92
2019-02-16T12:08:24.334Z,21.51
2019-02-16T12:09:24.301Z,22.24
2019-02-16T12:10:24.290Z,22.27
2019-02-16T12:11:24.285Z,22.88
2019-02-16T12:12:24.297Z,23.71
2019-02-16T12:13:24.270Z,23.71
2019-02-16T12:14:24.266Z,22.67
2019-02-16T12:15:24.249Z,22.47
2019-02-16T12:16:24.234Z,22.88
2019-02-16T12:17:24.255Z,22.39
2019-02-16T12:18:24.220Z,22.27
2019-02-16T12:19:24.212Z,22.56
2019-02-16T12:20:33.120Z,22.88
2019-02-16T12:21:25.192Z,22.46
2019-02-16T12:22:24.169Z,21.89
2019-02-16T12:23:24.220Z,22.47
2019-02-16T12:24:24.159Z,21.74
2019-02-16T12:25:24.150Z,22.23
2019-02-16T12:26:24.136Z,21.42
2019-02-16T12:27:24.166Z,21.94
2019-02-16T12:28:24.164Z,21.44
2019-02-16T12:29:24.098Z,22.13
2019-02-16T12:30:24.127Z,21.33
2019-02-16T12:31:24.081Z,21.93
2019-02-16T12:32:24.075Z,21.82
2019-02-16T12:33:24.067Z,21.60
2019-02-16T12:34:24.067Z,21.58
2019-02-16T12:35:24.042Z,20.37
2019-02-16T12:36:24.034Z,20.86
2019-02-16T12:37:24.056Z,20.97
2019-02-16T12:38:24.018Z,20.38
2019-02-16T12:39:24.012Z,21.37
2019-02-16T12:40:23.984Z,20.37
2019-02-16T12:41:23.977Z,21.47
2019-02-16T12:42:23.974Z,21.87
2019-02-16T12:43:24.009Z,20.65
2019-02-16T12:44:23.957Z,20.14
2019-02-16T12:45:23.969Z,20.04
2019-02-16T12:46:23.931Z,19.75
2019-02-16T12:47:23.928Z,19.98
2019-02-16T12:48:23.904Z,20.72
2019-02-16T12:49:23.920Z,20.40
2019-02-16T12:50:23.899Z,20.31
2019-02-16T12:51:23.889Z,20.42
2019-02-16T12:52:23.867Z,21.51